Terminal Aerodrome Forecast
Issued by NWS

Home | Current Version | Previous Version | Text Only | Print | Product List | Glossary On
Versions: 1 2 3 4 5 6 7 8 9 10 11 12 13 14 15 16 17 18 19 20 21 22 23 24
000
FTUS43 KDLH 290500
TAFHYR
TAF
KHYR 290530Z 2906/3006 15008KT P6SM VCSH BKN011 OVC024
      TEMPO 2908/2912 2SM TSRA BR OVC006CB
     FM291200 17007KT 2SM -SHRA BR VCTS OVC004CB
     FM291600 18004KT 4SM -RA BR VCTS OVC010CB
     FM292100 VRB03KT 6SM BR VCTS BKN025CB
     FM300100 VRB03KT 4SM -RA BR OVC015=

USA.gov is the U.S. government's official web portal to all federal, state and local government web resources and services.